Eskisehir, Turkey
Current Conditions -  °F | °C
As of 5:50 AM on Saturday 22 Nov 2014 (Local Time) from LTBY Reporting Station
Broken Clouds Broken Clouds  
Wind Chill: 30°   Ceiling: 2500
Heat Index: 37°   Visibility: 6mi
Dew Point: 36°   Wind: 12mph
Humidity: 93%   Direction: 290°WNW
Pressure: 30.03"   Gusts: NA
Location:  39.79°N, 30.52°E
Report Text: LTBY 220250Z 29010KT 9999 BKN025 03/02 Q1017
Loading
Personal Weather Stations






























Interactive Weather Map New forecast layout! Learn more

10-Day Weather Forecast

Advertisements
Track Severe Weather on mobile